Time;durP1;ratioP1;P1;durP2;ratioP2;P2;SDS_P1;SDS_P2;PMS_P1;PMS_P2;Temp;Humidity;BMP_temperature;BMP_pressure;BME280_temperature;BME280_humidity;BME280_pressure;Samples;Min_cycle;Max_cycle;Signal;HPM_P1;HPM_P2
2023/08/25 00:00:56;;;;;;;;;8.80;8.80;;;;;26.56;60.50;100758.38;2040198;27;1820116;-79
2023/08/25 00:02:08;;;;;;;;;9.50;8.50;;;;;26.54;60.94;100755.00;2049278;27;1824334;-76
2023/08/25 00:03:19;;;;;;;;;6.00;6.00;;;;;26.51;61.01;100758.00;2034531;27;2731604;-76
2023/08/25 00:04:30;;;;;;;;;11.25;10.00;;;;;26.47;60.67;100756.63;2062204;27;1821143;-79
2023/08/25 00:05:41;;;;;;;;;11.50;10.50;;;;;26.42;60.92;100754.38;2009579;27;2787823;-79
2023/08/25 00:06:52;;;;;;;;;14.40;11.60;;;;;26.41;61.35;100763.44;2038841;27;1823201;-79
2023/08/25 00:08:03;;;;;;;;;9.50;9.50;;;;;26.35;61.17;100759.50;2009662;27;2753346;-79
2023/08/25 00:09:14;;;;;;;;;4.33;4.33;;;;;26.31;61.62;100763.53;2011131;27;2748230;-79
2023/08/25 00:10:25;;;;;;;;;10.00;9.00;;;;;26.27;61.10;100757.59;2050513;27;2756530;-79
2023/08/25 00:11:38;;;;;;;;;11.00;9.00;;;;;26.23;62.18;100756.22;2007078;27;2766949;-80
2023/08/25 00:12:49;;;;;;;;;9.33;9.00;;;;;26.20;61.71;100759.19;2004838;27;2749260;-79
2023/08/25 00:14:03;;;;;;;;;9.00;8.00;;;;;26.14;62.41;100759.84;2057351;28;2733548;-79
2023/08/25 00:15:13;;;;;;;;;10.50;10.00;;;;;26.12;62.30;100754.59;2000568;28;2781844;-80
2023/08/25 00:16:25;;;;;;;;;10.00;10.00;;;;;26.07;61.68;100763.16;2020190;28;2794335;-81
2023/08/25 00:17:37;;;;;;;;;8.80;8.00;;;;;26.04;62.57;100758.06;2034604;28;1825336;-80
2023/08/25 00:18:51;;;;;;;;;11.33;9.33;;;;;26.00;62.38;100756.66;2035471;28;1815918;-79
2023/08/25 00:20:08;;;;;;;;;7.00;6.33;;;;;25.96;62.40;100747.19;2036519;28;1821211;-79
2023/08/25 00:21:19;;;;;;;;;9.00;9.00;;;;;25.94;62.56;100746.50;2002057;28;2747151;-79
2023/08/25 00:22:30;;;;;;;;;12.00;10.75;;;;;25.91;62.32;100744.97;2047746;28;1819057;-79
2023/08/25 00:23:40;;;;;;;;;10.00;9.00;;;;;25.88;62.72;100742.56;1992423;28;2769584;-79
2023/08/25 00:24:54;;;;;;;;;10.50;10.50;;;;;25.85;62.88;100738.34;2009666;28;2777367;-79
2023/08/25 00:26:05;;;;;;;;;8.00;8.00;;;;;25.82;63.25;100745.88;1996014;28;2728352;-79
2023/08/25 00:27:18;;;;;;;;;11.17;9.83;;;;;25.79;63.07;100738.09;2063516;28;2781497;-79
2023/08/25 00:28:28;;;;;;;;;8.50;8.50;;;;;25.75;63.61;100734.88;2013105;28;2748197;-79
2023/08/25 00:29:40;;;;;;;;;9.40;9.40;;;;;25.72;63.11;100733.34;2054467;28;1825298;-79
2023/08/25 00:30:51;;;;;;;;;10.00;9.00;;;;;25.70;63.20;100743.38;2023278;28;2765850;-79
2023/08/25 00:32:02;;;;;;;;;11.00;9.00;;;;;25.68;63.54;100741.84;2037234;28;2772191;-79
2023/08/25 00:33:16;;;;;;;;;11.83;9.33;;;;;25.65;63.98;100743.00;2056024;28;1819060;-80
2023/08/25 00:34:26;;;;;;;;;10.00;10.00;;;;;25.61;64.15;100733.50;1999423;28;2781533;-79
2023/08/25 00:35:40;;;;;;;;;7.00;7.00;;;;;25.60;64.05;100738.06;2020062;28;3457509;-79
2023/08/25 00:36:54;;;;;;;;;12.29;10.57;;;;;25.57;64.30;100738.34;2056222;28;1815888;-79
2023/08/25 00:38:07;;;;;;;;;9.17;9.17;;;;;25.57;63.33;100743.72;2059678;27;1820078;-79
2023/08/25 00:39:18;;;;;;;;;8.50;7.00;;;;;25.60;63.33;100746.13;2010730;27;2744026;-79
2023/08/25 00:40:35;;;;;;;;;9.00;8.33;;;;;25.67;63.72;100740.13;2045214;28;2737851;-79
2023/08/25 00:41:45;;;;;;;;;9.50;9.00;;;;;25.70;63.78;100729.94;2024433;28;2770059;-79
2023/08/25 00:42:58;;;;;;;;;10.83;10.83;;;;;25.71;64.09;100730.75;2060442;28;2793023;-79
2023/08/25 00:44:09;;;;;;;;;9.00;8.00;;;;;25.72;63.51;100727.06;2010707;28;2737770;-80
2023/08/25 00:45:21;;;;;;;;;7.00;7.00;;;;;25.70;63.38;100723.69;2043214;28;2741940;-80
2023/08/25 00:46:35;;;;;;;;;9.57;8.71;;;;;25.72;63.31;100724.38;2056999;28;2752713;-80
2023/08/25 00:47:46;;;;;;;;;13.00;9.00;;;;;25.75;63.72;100721.44;2024648;28;2771087;-77
2023/08/25 00:48:57;;;;;;;;;8.50;8.50;;;;;25.77;63.66;100721.25;2030724;28;2750320;-82
2023/08/25 00:50:11;;;;;;;;;10.50;10.00;;;;;25.77;63.73;100715.88;2002111;28;2787770;-79
2023/08/25 00:51:22;;;;;;;;;8.00;8.00;;;;;25.76;63.89;100715.03;2003043;28;2743001;-79
2023/08/25 00:52:32;;;;;;;;;10.00;10.00;;;;;25.77;63.39;100714.03;2016567;28;2776785;-79
2023/08/25 00:53:45;;;;;;;;;10.00;8.50;;;;;25.80;63.43;100715.59;2039790;28;2757899;-77
2023/08/25 00:54:57;;;;;;;;;7.00;7.00;;;;;25.83;63.25;100713.41;2027012;28;2743354;-79
2023/08/25 00:56:10;;;;;;;;;10.00;9.00;;;;;25.87;63.33;100713.13;2024598;28;2770099;-79
2023/08/25 00:57:22;;;;;;;;;12.00;10.50;;;;;25.90;62.85;100710.13;2024535;28;2802326;-78
2023/08/25 00:58:35;;;;;;;;;11.83;11.00;;;;;25.90;63.73;100712.81;2034018;28;1820073;-80
2023/08/25 00:59:46;;;;;;;;;10.00;8.00;;;;;25.89;63.15;100716.50;2006936;28;2764844;-78
2023/08/25 01:01:02;;;;;;;;;11.20;11.20;;;;;25.84;63.48;100723.22;2048444;28;2792955;-79
2023/08/25 01:02:14;;;;;;;;;11.00;10.50;;;;;25.81;63.83;100719.97;1997497;28;2791882;-79
2023/08/25 01:03:24;;;;;;;;;15.00;9.00;;;;;25.78;63.47;100715.72;2000556;27;2776301;-79
2023/08/25 01:04:37;;;;;;;;;10.20;9.20;;;;;25.77;63.37;100719.44;2029314;28;1823764;-79
2023/08/25 01:05:48;;;;;;;;;9.00;9.00;;;;;25.76;63.33;100711.47;2021227;27;2748154;-79
2023/08/25 01:06:59;;;;;;;;;12.00;11.50;;;;;25.76;63.56;100708.78;2022545;27;2782567;-79
2023/08/25 01:08:10;;;;;;;;;11.50;9.00;;;;;25.73;63.58;100718.06;2019262;28;2777376;-80
2023/08/25 01:09:21;;;;;;;;;9.67;9.00;;;;;25.73;63.63;100731.50;2041820;28;3488793;-78
2023/08/25 01:10:59;;;;;;;;;8.83;8.50;;;;;25.77;63.54;100732.88;2058363;28;1822193;-77
2023/08/25 01:12:18;;;;;;;;;9.00;8.00;;;;;25.80;63.22;100729.91;2002199;28;2748188;-77
2023/08/25 01:13:50;;;;;;;;;9.00;9.00;;;;;25.80;63.94;100729.03;2023209;27;2028489;-77
2023/08/25 01:15:13;;;;;;;;;10.00;10.00;;;;;25.76;63.38;100725.78;2040461;27;2777378;-77
2023/08/25 01:16:49;;;;;;;;;8.00;6.00;;;;;25.77;63.08;100721.25;2017834;27;2730473;-78
2023/08/25 01:18:11;;;;;;;;;12.00;12.00;;;;;25.80;63.75;100724.50;2040004;27;2795075;-78
2023/08/25 01:19:59;;;;;;;;;3.00;2.00;;;;;25.85;63.33;100730.25;2038662;27;2736759;-76
2023/08/25 01:21:11;;;;;;;;;11.00;11.00;;;;;25.88;63.01;100725.59;2008694;27;2789902;-76
2023/08/25 01:22:32;;;;;;;;;13.50;10.00;;;;;25.90;62.75;100723.59;2017179;27;2789845;-76
2023/08/25 01:23:56;;;;;;;;;12.00;12.00;;;;;25.94;62.49;100724.97;2016377;27;2789843;-75
2023/08/25 01:25:28;;;;;;;;;9.83;9.67;;;;;25.98;62.83;100725.53;2060612;27;1825423;-75
2023/08/25 01:26:42;;;;;;;;;10.17;9.17;;;;;26.01;62.52;100728.75;2037925;27;1820042;-75
2023/08/25 01:27:55;;;;;;;;;8.50;8.50;;;;;26.04;62.11;100725.75;2012201;27;2750241;-74
2023/08/25 01:29:09;;;;;;;;;9.00;8.83;;;;;26.07;62.26;100722.75;2064894;27;1822110;-75
2023/08/25 01:30:23;;;;;;;;;9.00;8.00;;;;;26.10;62.94;100728.84;2004898;27;2756527;-76
2023/08/25 01:31:33;;;;;;;;;9.00;9.00;;;;;26.09;62.46;100727.97;2033239;27;2738803;-75
2023/08/25 01:32:45;;;;;;;;;12.00;8.00;;;;;26.06;62.70;100720.19;2034300;27;2764800;-75
2023/08/25 01:34:01;;;;;;;;;10.86;10.00;;;;;26.02;62.71;100717.00;2048981;27;1816956;-75
2023/08/25 01:35:14;;;;;;;;;11.50;11.00;;;;;25.97;63.52;100721.97;2038296;27;2786730;-74
2023/08/25 01:36:45;;;;;;;;;11.00;11.00;;;;;25.94;63.42;100715.06;2014787;27;2784619;-75
2023/08/25 01:38:28;;;;;;;;;12.00;10.00;;;;;25.93;62.96;100717.88;2002647;27;2781506;-77
2023/08/25 01:39:42;;;;;;;;;9.00;9.00;;;;;25.94;62.52;100719.59;2012261;27;2761255;-77
2023/08/25 01:41:06;;;;;;;;;8.67;8.67;;;;;25.96;63.53;100712.19;2073715;27;1826391;-77
2023/08/25 01:42:22;;;;;;;;;10.50;10.50;;;;;25.96;63.38;100722.97;2018632;27;2791928;-77
2023/08/25 01:43:39;;;;;;;;;9.00;9.00;;;;;25.96;63.44;100720.28;2019487;27;2756510;-77
2023/08/25 01:44:51;;;;;;;;;10.50;10.00;;;;;25.95;63.42;100716.72;2035355;27;2781541;-77
2023/08/25 01:46:02;;;;;;;;;13.00;11.00;;;;;25.93;63.58;100718.72;2014176;27;2785698;-77
2023/08/25 01:47:16;;;;;;;;;12.00;11.00;;;;;25.91;63.64;100717.19;2013942;27;2788102;-77
2023/08/25 01:48:30;;;;;;;;;13.50;12.00;;;;;25.88;63.48;100720.22;2009929;27;2800208;-77
2023/08/25 01:49:42;;;;;;;;;10.00;9.00;;;;;25.85;62.88;100715.97;2015707;27;2763830;-76
2023/08/25 01:50:53;;;;;;;;;8.00;8.00;;;;;25.88;63.27;100710.28;2046575;27;2041973;-76
2023/08/25 01:52:04;;;;;;;;;10.00;10.00;;;;;25.90;63.17;100707.44;2046476;27;2787751;-76
2023/08/25 01:53:15;;;;;;;;;9.00;9.00;;;;;25.89;63.52;100708.44;2022755;27;2750241;-75
2023/08/25 01:54:26;;;;;;;;;10.00;10.00;;;;;25.86;62.69;100712.28;2044551;27;2786745;-75
2023/08/25 01:55:37;;;;;;;;;9.00;9.00;;;;;25.84;63.45;100712.44;2034998;27;2754388;-75
2023/08/25 01:56:49;;;;;;;;;12.40;11.20;;;;;25.81;63.21;100714.56;2049682;27;2792967;-75
2023/08/25 01:58:05;;;;;;;;;9.60;9.60;;;;;25.77;63.73;100708.66;2032808;27;2762765;-75
2023/08/25 01:59:15;;;;;;;;;12.50;10.00;;;;;25.72;63.56;100711.81;2038030;27;2788788;-76
2023/08/25 02:00:26;;;;;;;;;11.00;9.00;;;;;25.66;63.65;100701.59;2025894;27;2773144;-75
2023/08/25 02:01:37;;;;;;;;;10.00;10.00;;;;;25.62;64.15;100703.78;2028014;27;2779431;-76
2023/08/25 02:02:50;;;;;;;;;10.00;10.00;;;;;25.58;63.91;100701.53;2051666;27;2787767;-76
2023/08/25 02:04:01;;;;;;;;;14.00;12.00;;;;;25.53;64.30;100703.84;2033669;27;2790940;-76
2023/08/25 02:05:12;;;;;;;;;11.50;11.00;;;;;25.49;64.31;100692.50;2031753;27;2789850;-75
2023/08/25 02:06:23;;;;;;;;;11.50;11.50;;;;;25.45;64.65;100691.97;2034380;27;2789827;-81
2023/08/25 02:07:35;;;;;;;;;10.60;10.40;;;;;25.40;64.23;100689.75;2048075;27;1823230;-78
2023/08/25 02:08:46;;;;;;;;;11.50;10.00;;;;;25.37;64.68;100684.66;2039423;27;2779418;-76
2023/08/25 02:09:57;;;;;;;;;9.80;9.00;;;;;25.34;65.02;100682.25;2037985;27;1822223;-75
2023/08/25 02:11:09;;;;;;;;;11.00;10.00;;;;;25.31;64.94;100674.47;2032022;27;2787747;-77
2023/08/25 02:12:23;;;;;;;;;12.86;8.29;;;;;25.28;65.15;100672.13;2073049;27;3498149;-76
2023/08/25 02:13:34;;;;;;;;;14.00;12.00;;;;;25.26;64.80;100676.81;2048949;27;2782552;-75
2023/08/25 02:14:45;;;;;;;;;12.00;11.00;;;;;25.23;65.32;100680.63;2024728;27;2787792;-77
2023/08/25 02:15:56;;;;;;;;;9.00;8.00;;;;;25.21;65.62;100681.78;2057728;27;2753397;-77
2023/08/25 02:17:08;;;;;;;;;13.67;11.00;;;;;25.17;65.60;100687.44;2073474;27;2787767;-77
2023/08/25 02:18:19;;;;;;;;;10.00;10.00;;;;;25.15;65.64;100685.91;2026413;27;2779435;-78
2023/08/25 02:19:31;;;;;;;;;11.00;11.00;;;;;25.14;65.52;100685.03;2025500;27;2788183;-80
2023/08/25 02:20:42;;;;;;;;;11.00;10.00;;;;;25.13;65.70;100685.19;2015371;27;2789846;-79
2023/08/25 02:21:56;;;;;;;;;10.14;10.14;;;;;25.12;65.84;100678.13;2062613;27;1823259;-79
2023/08/25 02:23:08;;;;;;;;;13.00;9.00;;;;;25.10;65.67;100683.66;2033101;27;2766935;-79
2023/08/25 02:24:21;;;;;;;;;12.83;12.83;;;;;25.06;66.02;100675.03;2048337;27;1820054;-79
2023/08/25 02:25:31;;;;;;;;;10.50;9.00;;;;;25.05;65.84;100672.50;2015007;27;2776341;-79
2023/08/25 02:26:43;;;;;;;;;11.60;10.00;;;;;25.04;65.84;100662.72;2043786;27;1820587;-79
2023/08/25 02:27:54;;;;;;;;;14.50;12.00;;;;;25.03;66.14;100658.38;2039153;27;2801265;-79
2023/08/25 02:29:05;;;;;;;;;14.00;11.00;;;;;25.01;65.64;100646.91;2034265;27;2789862;-79
2023/08/25 02:30:16;;;;;;;;;11.00;10.00;;;;;25.00;66.00;100639.84;2015714;27;2789814;-79
2023/08/25 02:31:27;;;;;;;;;11.00;10.00;;;;;24.99;65.99;100635.44;2025852;27;2784639;-77
2023/08/25 02:32:38;;;;;;;;;9.80;9.20;;;;;24.98;65.82;100633.72;2040612;27;1816433;-77
2023/08/25 02:33:49;;;;;;;;;11.50;11.50;;;;;24.97;66.47;100624.81;2039267;27;2785652;-79
2023/08/25 02:35:00;;;;;;;;;11.00;10.00;;;;;24.95;66.39;100619.59;2034199;27;2784677;-80
2023/08/25 02:36:11;;;;;;;;;12.00;10.00;;;;;24.97;66.22;100615.91;2034476;27;2784638;-80
2023/08/25 02:37:23;;;;;;;;;12.80;11.20;;;;;24.97;65.99;100605.16;2047769;27;1821152;-80
2023/08/25 02:38:33;;;;;;;;;10.00;10.00;;;;;24.97;66.33;100602.47;2040072;27;2777363;-79
2023/08/25 02:39:45;;;;;;;;;13.80;12.80;;;;;24.95;66.46;100603.47;2043734;27;1822168;-79
2023/08/25 02:40:56;;;;;;;;;14.67;10.33;;;;;24.95;66.24;100610.69;2039005;27;2791885;-79
2023/08/25 02:42:07;;;;;;;;;9.50;9.50;;;;;24.94;66.73;100609.00;2038193;27;2769026;-79
2023/08/25 02:43:19;;;;;;;;;12.20;11.20;;;;;24.92;66.31;100609.13;2037522;27;1827433;-79
2023/08/25 02:44:30;;;;;;;;;13.67;12.00;;;;;24.89;66.72;100606.75;2030450;27;2793977;-79
2023/08/25 02:45:41;;;;;;;;;9.00;9.00;;;;;24.88;66.27;100594.31;2038332;27;2754427;-81
2023/08/25 02:46:52;;;;;;;;;8.50;8.50;;;;;24.86;66.58;100596.31;2017853;27;2750300;-77
2023/08/25 02:48:03;;;;;;;;;10.50;10.50;;;;;24.86;66.82;100598.16;2032106;27;2787727;-75
2023/08/25 02:49:14;;;;;;;;;12.50;10.00;;;;;24.83;67.02;100605.50;2015708;27;2786175;-75
2023/08/25 02:50:25;;;;;;;;;13.50;12.00;;;;;24.81;66.77;100604.81;2034534;27;2790849;-75
2023/08/25 02:51:36;;;;;;;;;12.00;9.50;;;;;24.82;66.75;100619.06;2030107;27;2781517;-75
2023/08/25 02:52:47;;;;;;;;;10.25;10.00;;;;;24.80;66.82;100619.25;2046315;27;1820074;-75
2023/08/25 02:54:01;;;;;;;;;9.43;9.43;;;;;24.78;66.62;100623.06;2049000;27;1820070;-75
2023/08/25 02:55:17;;;;;;;;;12.50;12.17;;;;;24.76;67.25;100627.75;2066961;27;1825346;-75
2023/08/25 02:56:31;;;;;;;;;10.83;10.00;;;;;24.76;66.91;100630.44;2050669;27;1821162;-75
2023/08/25 02:57:44;;;;;;;;;10.67;9.17;;;;;24.75;67.15;100628.72;2049042;27;1831629;-75
2023/08/25 02:58:57;;;;;;;;;12.00;11.60;;;;;24.73;66.47;100627.06;2038335;27;2804389;-78
2023/08/25 03:00:10;;;;;;;;;8.00;8.00;;;;;24.72;67.27;100628.03;2034878;27;2750253;-76
2023/08/25 03:01:21;;;;;;;;;13.00;11.50;;;;;24.70;67.34;100629.16;2039768;27;2791934;-76
2023/08/25 03:02:32;;;;;;;;;11.00;10.00;;;;;24.69;66.82;100640.94;2032895;27;2796099;-76
2023/08/25 03:03:44;;;;;;;;;11.00;9.00;;;;;24.70;67.25;100647.97;2033144;27;2774230;-75
2023/08/25 03:04:54;;;;;;;;;12.00;11.00;;;;;24.72;67.20;100651.38;2016492;27;2786736;-74
2023/08/25 03:06:06;;;;;;;;;11.60;11.60;;;;;24.74;66.86;100660.16;2044414;27;1831521;-75
2023/08/25 03:07:17;;;;;;;;;8.00;8.00;;;;;24.79;66.66;100651.66;2029861;27;1808623;-74
2023/08/25 03:08:28;;;;;;;;;10.50;10.50;;;;;24.87;66.02;100664.31;2033424;27;2784619;-74
2023/08/25 03:09:39;;;;;;;;;10.00;9.00;;;;;24.96;66.05;100668.84;2032730;27;2766389;-74
2023/08/25 03:10:50;;;;;;;;;11.00;10.50;;;;;25.05;65.81;100672.50;2058400;27;2797495;-75
2023/08/25 03:12:02;;;;;;;;;9.60;9.40;;;;;25.12;66.29;100676.28;2048653;27;1821195;-75
2023/08/25 03:13:12;;;;;;;;;9.50;9.50;;;;;25.13;66.19;100678.00;2039975;27;2769045;-75
2023/08/25 03:14:26;;;;;;;;;13.00;8.50;;;;;25.14;66.03;100676.97;2033823;27;2771077;-75
2023/08/25 03:15:40;;;;;;;;;11.29;11.29;;;;;25.12;66.03;100678.13;2047334;27;1827910;-75
2023/08/25 03:16:51;;;;;;;;;10.50;10.50;;;;;25.11;66.31;100677.28;2040100;27;2786741;-75
2023/08/25 03:18:02;;;;;;;;;9.00;9.00;;;;;25.13;66.22;100680.69;2035090;27;2762768;-75
2023/08/25 03:19:13;;;;;;;;;10.00;9.00;;;;;25.14;65.64;100690.41;2056150;27;2763825;-75
2023/08/25 03:20:24;;;;;;;;;10.20;9.60;;;;;25.17;65.51;100692.81;2043072;27;1822162;-75
2023/08/25 03:21:35;;;;;;;;;7.50;7.50;;;;;25.23;65.26;100699.47;2024405;27;2741896;-76
2023/08/25 03:22:46;;;;;;;;;6.00;5.33;;;;;25.30;65.35;100707.78;2033556;27;2750304;-76
2023/08/25 03:23:57;;;;;;;;;9.00;9.00;;;;;25.36;64.73;100709.84;2063892;27;1820042;-76
2023/08/25 03:25:10;;;;;;;;;10.00;9.17;;;;;25.44;65.12;100710.94;2044717;27;1825311;-75
2023/08/25 03:26:23;;;;;;;;;11.50;9.50;;;;;25.50;64.45;100721.97;2047702;27;1825365;-75
2023/08/25 03:27:36;;;;;;;;;10.80;10.80;;;;;25.57;64.35;100730.28;2037273;27;2781466;-76
2023/08/25 03:28:47;;;;;;;;;13.50;9.50;;;;;25.62;64.10;100736.06;2015591;27;2777362;-76
2023/08/25 03:29:58;;;;;;;;;11.50;10.00;;;;;25.68;64.65;100742.66;2059261;27;2796092;-76
2023/08/25 03:31:09;;;;;;;;;10.75;10.75;;;;;25.74;64.16;100746.63;2062527;27;2783589;-76
2023/08/25 03:32:20;;;;;;;;;10.50;10.00;;;;;25.79;64.32;100747.03;2032498;27;2787751;-77
2023/08/25 03:33:31;;;;;;;;;10.00;10.00;;;;;25.84;63.76;100747.44;2033531;27;2774269;-81
2023/08/25 03:34:42;;;;;;;;;11.00;10.00;;;;;25.88;63.92;100753.34;2028263;27;2782555;-78
2023/08/25 03:35:53;;;;;;;;;10.00;10.00;;;;;25.92;63.31;100751.19;2034427;27;2772235;-83
2023/08/25 03:37:05;;;;;;;;;10.50;10.50;;;;;25.97;63.18;100748.91;2033731;27;2793989;-83
2023/08/25 03:38:16;;;;;;;;;11.00;11.00;;;;;26.01;63.22;100752.13;2005957;27;2786729;-79
2023/08/25 03:39:27;;;;;;;;;8.00;8.00;;;;;26.05;63.33;100756.22;2025274;27;2754949;-79
2023/08/25 03:40:39;;;;;;;;;10.40;10.00;;;;;26.08;63.50;100750.50;2060959;27;1821127;-79
2023/08/25 03:41:49;;;;;;;;;9.50;9.00;;;;;26.12;62.69;100740.28;2023463;27;2752417;-79
2023/08/25 03:43:02;;;;;;;;;11.83;11.17;;;;;26.15;62.93;100729.22;2040676;27;2789209;-79
2023/08/25 03:44:14;;;;;;;;;11.00;11.00;;;;;26.20;62.37;100728.75;2039882;27;1820110;-80
2023/08/25 03:45:25;;;;;;;;;11.33;10.00;;;;;26.23;62.42;100718.50;2029445;27;2788219;-78
2023/08/25 03:46:39;;;;;;;;;9.86;9.86;;;;;26.27;62.16;100719.06;2071979;27;1820096;-78
2023/08/25 03:47:50;;;;;;;;;12.00;12.00;;;;;26.28;62.43;100713.50;2039985;27;2786737;-80
2023/08/25 03:49:01;;;;;;;;;10.50;9.50;;;;;26.29;62.50;100715.19;2033522;27;2772123;-78
2023/08/25 03:50:12;;;;;;;;;10.80;10.20;;;;;26.33;62.73;100717.56;2040030;27;3515851;-79
2023/08/25 03:51:23;;;;;;;;;12.00;10.50;;;;;26.34;62.23;100711.19;2045593;27;2784646;-78
2023/08/25 03:52:35;;;;;;;;;10.80;10.60;;;;;26.36;62.19;100707.34;2038179;27;1820089;-78
2023/08/25 03:53:46;;;;;;;;;9.33;9.33;;;;;26.38;61.85;100721.50;2039048;27;2773159;-78
2023/08/25 03:54:57;;;;;;;;;11.50;10.50;;;;;26.40;62.08;100714.09;2036895;27;2787759;-80
2023/08/25 03:56:08;;;;;;;;;12.50;10.00;;;;;26.42;61.95;100708.56;2028426;27;2782534;-79
2023/08/25 03:57:19;;;;;;;;;13.00;12.00;;;;;26.43;62.57;100691.41;2034850;27;2789839;-79
2023/08/25 03:58:31;;;;;;;;;13.20;11.20;;;;;26.43;62.29;100687.88;2044943;27;1823224;-79
2023/08/25 03:59:45;;;;;;;;;11.29;10.57;;;;;26.43;61.98;100691.41;2043828;27;1816906;-79
2023/08/25 04:00:56;;;;;;;;;13.50;10.50;;;;;26.43;62.17;100691.41;2031388;27;2791942;-77
2023/08/25 04:02:06;;;;;;;;;13.00;9.00;;;;;26.41;61.88;100688.00;2014989;27;2774252;-75
2023/08/25 04:03:17;;;;;;;;;8.75;8.75;;;;;26.41;61.59;100686.16;2032780;27;2740850;-74
2023/08/25 04:04:31;;;;;;;;;10.00;10.00;;;;;26.41;62.01;100677.22;2033371;27;2779464;-74
2023/08/25 04:05:42;;;;;;;;;12.00;11.50;;;;;26.40;62.04;100675.53;2042518;27;2790161;-75
2023/08/25 04:06:53;;;;;;;;;13.00;10.50;;;;;26.37;62.87;100668.59;2026559;27;2790915;-74
2023/08/25 04:08:04;;;;;;;;;13.00;12.00;;;;;26.37;62.70;100665.09;2015257;27;2792343;-75
2023/08/25 04:09:15;;;;;;;;;11.00;11.00;;;;;26.35;62.20;100656.31;2022446;27;2789842;-75
2023/08/25 04:10:26;;;;;;;;;10.00;10.00;;;;;26.35;62.73;100653.63;2023544;27;2787184;-74
2023/08/25 04:11:38;;;;;;;;;10.20;8.80;;;;;26.34;62.10;100638.44;2048050;27;1823252;-74
2023/08/25 04:12:49;;;;;;;;;12.00;12.00;;;;;26.32;62.79;100638.63;2030679;27;2789854;-78
2023/08/25 04:14:01;;;;;;;;;11.50;10.00;;;;;26.30;62.83;100638.75;2038295;27;2761746;-78
2023/08/25 04:15:13;;;;;;;;;10.00;9.80;;;;;26.25;62.90;100624.91;2055791;27;1823246;-78
2023/08/25 04:16:24;;;;;;;;;11.00;10.00;;;;;26.20;62.72;100619.16;2022557;27;2787798;-78
2023/08/25 04:17:35;;;;;;;;;13.00;11.00;;;;;26.18;62.63;100623.84;2012306;28;2787783;-79
2023/08/25 04:18:46;;;;;;;;;8.40;8.40;;;;;26.15;63.28;100624.19;2032994;27;1820082;-80
2023/08/25 04:19:58;;;;;;;;;9.67;9.67;;;;;26.12;62.65;100621.81;2024791;27;2774205;-80
2023/08/25 04:21:08;;;;;;;;;10.00;10.00;;;;;26.09;63.33;100620.28;2021342;28;2783604;-79
2023/08/25 04:22:19;;;;;;;;;12.50;10.00;;;;;26.09;63.08;100616.72;2018104;27;2778356;-76
2023/08/25 04:23:30;;;;;;;;;10.00;10.00;;;;;26.07;63.16;100623.13;2018488;28;2790404;-77
2023/08/25 04:24:42;;;;;;;;;10.25;9.50;;;;;26.06;63.05;100624.13;2021889;27;2757567;-77
2023/08/25 04:25:52;;;;;;;;;12.50;12.50;;;;;26.02;62.86;100620.06;2000533;27;2791934;-77
2023/08/25 04:27:03;;;;;;;;;13.25;10.25;;;;;25.99;63.43;100614.13;2019808;27;2779423;-77
2023/08/25 04:28:16;;;;;;;;;11.33;11.00;;;;;25.95;63.45;100619.00;2035228;27;2793297;-77
2023/08/25 04:29:27;;;;;;;;;14.50;13.00;;;;;25.91;63.19;100618.44;2021458;27;2813797;-77
2023/08/25 04:30:38;;;;;;;;;11.00;10.00;;;;;25.89;63.54;100620.44;2015297;28;2791961;-78
2023/08/25 04:31:49;;;;;;;;;9.50;9.50;;;;;25.88;63.80;100621.44;2017659;28;2771108;-78
2023/08/25 04:33:00;;;;;;;;;8.00;7.00;;;;;25.87;63.42;100621.59;2030957;27;1817956;-78
2023/08/25 04:34:11;;;;;;;;;13.00;12.00;;;;;25.83;63.85;100611.13;2000666;28;2785652;-78
2023/08/25 04:35:23;;;;;;;;;11.40;11.00;;;;;25.82;63.73;100614.84;2012742;28;3511075;-76
2023/08/25 04:36:36;;;;;;;;;12.50;10.00;;;;;25.81;63.46;100617.69;2047566;27;2786758;-77
2023/08/25 04:37:47;;;;;;;;;12.00;11.00;;;;;25.80;63.38;100616.00;2009697;27;2787794;-75
2023/08/25 04:38:58;;;;;;;;;11.50;11.50;;;;;25.77;63.81;100617.16;2008377;27;2787723;-75
2023/08/25 04:40:10;;;;;;;;;13.17;12.50;;;;;25.77;64.01;100621.69;2040485;27;2813796;-75
2023/08/25 04:41:22;;;;;;;;;15.00;13.00;;;;;25.76;64.08;100619.97;2018700;27;2802370;-76
2023/08/25 04:42:33;;;;;;;;;15.00;10.50;;;;;25.74;63.54;100614.75;2024013;27;2794024;-79
2023/08/25 04:43:44;;;;;;;;;12.50;10.00;;;;;25.74;64.24;100622.84;2016939;27;2788809;-79
2023/08/25 04:44:57;;;;;;;;;11.00;11.00;;;;;25.73;63.59;100618.47;2037426;27;2787730;-77
2023/08/25 04:46:08;;;;;;;;;13.00;12.00;;;;;25.75;64.13;100613.78;2021802;27;2786710;-77
2023/08/25 04:47:19;;;;;;;;;12.00;12.00;;;;;25.76;63.75;100604.69;2027015;27;2792244;-77
2023/08/25 04:48:31;;;;;;;;;14.20;12.20;;;;;25.76;64.06;100612.75;2026615;27;3518979;-77
2023/08/25 04:49:43;;;;;;;;;13.67;11.33;;;;;25.75;63.97;100613.78;2036608;28;2804434;-77
2023/08/25 04:50:53;;;;;;;;;14.00;10.00;;;;;25.76;63.76;100619.97;2016677;28;2790256;-77
2023/08/25 04:52:04;;;;;;;;;12.00;11.00;;;;;25.75;63.76;100618.31;2018050;28;2790286;-77
2023/08/25 04:53:15;;;;;;;;;8.50;8.50;;;;;25.75;63.57;100619.16;2018413;27;2749235;-77
2023/08/25 04:54:27;;;;;;;;;10.80;10.80;;;;;25.76;63.90;100611.91;2046764;27;2793974;-76
2023/08/25 04:55:37;;;;;;;;;12.00;10.50;;;;;25.76;64.06;100603.84;2022147;27;2785716;-75
2023/08/25 04:56:48;;;;;;;;;12.00;10.50;;;;;25.77;63.45;100603.69;2027215;27;2787731;-75
2023/08/25 04:58:02;;;;;;;;;11.17;11.17;;;;;25.79;63.71;100601.69;2044180;27;2789832;-75
2023/08/25 04:59:13;;;;;;;;;12.00;12.00;;;;;25.81;63.96;100604.22;1998237;28;2787802;-75
2023/08/25 05:00:24;;;;;;;;;13.00;12.00;;;;;25.82;63.36;100600.53;2009482;27;2787783;-75
2023/08/25 05:01:35;;;;;;;;;12.50;12.50;;;;;25.84;63.78;100603.91;2017807;27;2779439;-81
2023/08/25 05:02:49;;;;;;;;;15.33;15.33;;;;;25.84;63.90;100603.91;2018994;27;3544982;-82
2023/08/25 05:04:00;;;;;;;;;15.67;15.00;;;;;25.84;63.60;100612.84;2024744;28;3540819;-82
2023/08/25 05:05:12;;;;;;;;;17.33;16.67;;;;;25.85;63.95;100611.81;2032949;27;3564840;-83
2023/08/25 05:06:24;;;;;;;;;15.40;15.00;;;;;25.85;63.05;100608.31;2021119;27;3535662;-81
2023/08/25 05:07:36;;;;;;;;;17.00;14.00;;;;;25.88;63.63;100609.84;2042668;27;3536684;-81
2023/08/25 05:08:48;;;;;;;;;17.00;13.80;;;;;25.89;63.60;100614.22;2046411;27;3532535;-81
2023/08/25 05:10:00;;;;;;;;;17.00;16.20;;;;;25.91;63.89;100622.97;2046511;27;3562715;-79
2023/08/25 05:11:12;;;;;;;;;16.67;13.67;;;;;25.91;63.47;100618.44;2024654;28;3539825;-83
2023/08/25 05:12:23;;;;;;;;;17.33;17.00;;;;;25.92;63.52;100620.16;2038582;27;3570035;-81
2023/08/25 05:13:34;;;;;;;;;18.60;16.60;;;;;25.93;63.39;100627.19;2020448;27;2840958;-80
2023/08/25 05:14:46;;;;;;;;;20.40;18.80;;;;;25.94;63.51;100623.53;2051996;27;3571097;-79
2023/08/25 05:15:59;;;;;;;;;23.14;20.43;;;;;25.96;63.54;100626.06;2042508;27;3582495;-80
2023/08/25 05:17:10;;;;;;;;;18.60;18.40;;;;;25.95;63.43;100627.88;2011923;27;2839931;-82
2023/08/25 05:18:24;;;;;;;;;26.67;23.00;;;;;25.98;63.66;100623.22;2059407;27;3574167;-81
2023/08/25 05:19:35;;;;;;;;;19.00;18.33;;;;;25.96;63.38;100624.22;2018056;27;3567917;-81
2023/08/25 05:20:46;;;;;;;;;21.80;19.60;;;;;25.99;63.24;100624.91;2020775;27;2840989;-81
2023/08/25 05:21:58;;;;;;;;;19.60;19.60;;;;;26.01;63.67;100625.56;2060368;27;3567897;-81
2023/08/25 05:23:10;;;;;;;;;30.60;26.60;;;;;26.02;63.82;100627.28;2061447;27;3593938;-83
2023/08/25 05:24:26;;;;;;;;;25.88;21.88;;;;;26.02;63.81;100630.81;2026529;27;3593944;-83
2023/08/25 05:25:37;;;;;;;;;28.00;23.00;;;;;26.04;63.42;100628.81;2030900;27;2506505;-81